Time;durP1;ratioP1;P1;durP2;ratioP2;P2;SDS_P1;SDS_P2;PMS_P1;PMS_P2;Temp;Humidity;BMP_temperature;BMP_pressure;BME280_temperature;BME280_humidity;BME280_pressure;Samples;Min_cycle;Max_cycle;Signal;HPM_P1;HPM_P2
2023/06/30 00:01:33;;;;;;;6.07;4.97;;;;;;;14.56;95.84;94713.53;5098187;28;20278;-73
2023/06/30 00:04:01;;;;;;;7.45;5.00;;;;;;;14.55;95.04;94700.25;5111174;28;20210;-74
2023/06/30 00:06:29;;;;;;;6.32;4.65;;;;;;;14.57;95.13;94714.34;5111400;28;20209;-74
2023/06/30 00:08:56;;;;;;;5.80;5.00;;;;;;;14.56;94.41;94712.75;5111270;28;20572;-74
2023/06/30 00:11:23;;;;;;;7.07;5.00;;;;;;;14.45;94.53;94712.47;5111742;28;20305;-74
2023/06/30 00:13:52;;;;;;;6.03;4.68;;;;;;;14.41;94.65;94713.53;5111553;28;20209;-74
2023/06/30 00:16:20;;;;;;;5.75;4.60;;;;;;;14.36;95.04;94706.34;5111027;28;20206;-74
2023/06/30 00:18:47;;;;;;;6.50;4.75;;;;;;;14.32;95.72;94712.88;5111551;28;20231;-75
2023/06/30 00:21:13;;;;;;;6.15;4.95;;;;;;;14.34;95.87;94716.03;5111086;28;20295;-74
2023/06/30 00:23:40;;;;;;;6.47;5.05;;;;;;;14.32;95.80;94713.66;5111122;28;20240;-74
2023/06/30 00:26:07;;;;;;;6.68;5.25;;;;;;;14.29;95.21;94710.81;5111062;28;20258;-74
2023/06/30 00:28:34;;;;;;;6.57;4.78;;;;;;;14.17;96.27;94717.94;5111333;28;20236;-74
2023/06/30 00:31:02;;;;;;;5.43;4.50;;;;;;;14.21;96.37;94707.91;5110834;28;20317;-74
2023/06/30 00:33:29;;;;;;;6.97;4.97;;;;;;;14.27;95.71;94704.94;5110620;28;20258;-74
2023/06/30 00:35:55;;;;;;;7.03;4.50;;;;;;;14.33;95.74;94709.00;5120286;27;20239;-74
2023/06/30 00:38:22;;;;;;;8.00;4.80;;;;;;;14.28;95.39;94711.97;5098374;27;20210;-74
2023/06/30 00:40:49;;;;;;;5.47;4.15;;;;;;;14.26;95.32;94714.25;5090175;28;20259;-73
2023/06/30 00:43:16;;;;;;;8.02;4.60;;;;;;;14.28;94.87;94717.41;5089946;28;20250;-74
2023/06/30 00:45:43;;;;;;;6.47;5.22;;;;;;;14.23;94.80;94716.53;5103581;28;20198;-73
2023/06/30 00:48:12;;;;;;;7.25;4.85;;;;;;;14.22;94.72;94723.09;5110316;28;20748;-73
2023/06/30 00:50:38;;;;;;;11.98;5.50;;;;;;;14.17;94.72;94717.94;5109795;28;20644;-74
2023/06/30 00:53:06;;;;;;;9.20;5.25;;;;;;;14.13;95.26;94705.34;5120393;27;20294;-74
2023/06/30 00:55:34;;;;;;;6.47;4.72;;;;;;;14.18;95.19;94713.28;5107099;28;20194;-73
2023/06/30 00:58:01;;;;;;;8.60;4.82;;;;;;;14.17;95.36;94712.47;5109498;28;20564;-74
2023/06/30 01:00:28;;;;;;;5.03;4.53;;;;;;;14.13;95.22;94717.03;5098451;28;20588;-73
2023/06/30 01:03:02;;;;;;;6.38;4.65;;;;;;;14.03;95.70;94705.84;5089829;28;20230;-73
2023/06/30 01:05:41;;;;;;;6.50;4.43;;;;;;;14.05;95.47;94704.38;5090115;28;20209;-73
2023/06/30 01:08:16;;;;;;;8.48;5.10;;;;;;;14.06;95.62;94708.69;5090313;28;20205;-73
2023/06/30 01:10:46;;;;;;;6.57;5.05;;;;;;;14.09;95.64;94716.13;5088486;28;20665;-73
2023/06/30 01:13:14;;;;;;;6.53;4.97;;;;;;;14.01;96.16;94714.38;5099176;28;20302;-73
2023/06/30 01:15:42;;;;;;;7.70;5.03;;;;;;;14.07;95.97;94715.72;5123568;27;20197;-73
2023/06/30 01:18:09;;;;;;;11.68;5.53;;;;;;;14.02;96.23;94710.50;5109914;28;20254;-74
2023/06/30 01:20:40;;;;;;;7.38;4.90;;;;;;;14.02;95.99;94707.78;5120033;27;20202;-73
2023/06/30 01:23:13;;;;;;;8.13;5.40;;;;;;;13.97;95.92;94697.13;5100358;28;20221;-73
2023/06/30 01:25:41;;;;;;;10.02;5.30;;;;;;;13.90;96.86;94702.38;5109687;28;20202;-74
2023/06/30 01:28:09;;;;;;;7.50;5.82;;;;;;;13.65;98.74;94700.88;5107515;28;20210;-73
2023/06/30 01:30:36;;;;;;;13.55;5.65;;;;;;;13.69;99.50;94697.09;5113976;27;20225;-74
2023/06/30 01:33:03;;;;;;;5.88;5.20;;;;;;;13.75;99.48;94700.41;5118071;27;20205;-73
2023/06/30 01:35:30;;;;;;;7.75;5.85;;;;;;;13.68;99.78;94689.28;5109377;28;20305;-73
2023/06/30 01:37:59;;;;;;;6.50;5.38;;;;;;;13.65;100.00;94692.72;5109712;28;20212;-73
2023/06/30 01:40:26;;;;;;;9.88;5.68;;;;;;;13.68;100.00;94695.53;5116533;27;20210;-74
2023/06/30 01:42:55;;;;;;;9.95;5.78;;;;;;;13.70;100.00;94689.72;5088980;28;20248;-73
2023/06/30 01:45:23;;;;;;;7.47;5.13;;;;;;;13.67;99.89;94690.41;5099132;28;20217;-73
2023/06/30 01:47:50;;;;;;;6.00;5.22;;;;;;;13.60;100.00;94682.06;5110020;28;20214;-73
2023/06/30 01:50:17;;;;;;;6.68;5.07;;;;;;;13.53;100.00;94680.72;5109505;28;20205;-74
2023/06/30 01:52:44;;;;;;;7.97;5.72;;;;;;;13.62;99.58;94682.50;5109091;28;20661;-73
2023/06/30 01:55:12;;;;;;;7.22;5.47;;;;;;;13.58;99.27;94679.69;5108452;28;20202;-73
2023/06/30 01:57:39;;;;;;;9.30;5.88;;;;;;;13.59;99.27;94691.38;5108748;28;20202;-73
2023/06/30 02:00:07;;;;;;;6.43;5.50;;;;;;;13.59;99.30;94689.44;5099866;28;20269;-74
2023/06/30 02:02:34;;;;;;;6.55;5.00;;;;;;;13.56;99.27;94676.50;5089120;28;20298;-74
2023/06/30 02:05:01;;;;;;;7.95;5.85;;;;;;;13.62;98.86;94682.50;5089087;28;20225;-74
2023/06/30 02:07:27;;;;;;;8.23;5.43;;;;;;;13.64;98.69;94677.53;5089253;28;20207;-73
2023/06/30 02:09:54;;;;;;;7.75;5.45;;;;;;;13.64;98.33;94677.53;5088882;28;20210;-74
2023/06/30 02:12:22;;;;;;;8.07;5.85;;;;;;;13.60;98.62;94682.84;5090410;28;20210;-74
2023/06/30 02:14:49;;;;;;;7.10;5.20;;;;;;;13.56;98.93;94684.69;5109544;28;20209;-73
2023/06/30 02:17:16;;;;;;;5.68;4.50;;;;;;;13.55;98.83;94690.47;5108921;28;20267;-73
2023/06/30 02:19:43;;;;;;;9.85;5.70;;;;;;;13.42;99.23;94693.22;5109245;28;20204;-73
2023/06/30 02:22:09;;;;;;;9.20;6.15;;;;;;;13.37;99.89;94679.06;5109267;28;20210;-73
2023/06/30 02:24:36;;;;;;;6.72;5.90;;;;;;;13.45;99.42;94687.09;5109682;28;20205;-73
2023/06/30 02:27:03;;;;;;;7.78;6.07;;;;;;;13.47;99.18;94682.09;5109222;28;20572;-73
2023/06/30 02:29:32;;;;;;;7.95;5.45;;;;;;;13.45;98.78;94683.56;5108804;28;20213;-74
2023/06/30 02:31:59;;;;;;;7.55;5.47;;;;;;;13.43;98.73;94683.91;5109402;28;20244;-73
2023/06/30 02:34:26;;;;;;;8.27;5.90;;;;;;;13.47;98.47;94684.03;5108964;28;20251;-74
2023/06/30 02:36:53;;;;;;;9.63;6.80;;;;;;;13.52;98.09;94687.31;5109068;28;20247;-74
2023/06/30 02:39:19;;;;;;;10.43;6.38;;;;;;;13.51;97.77;94691.16;5110107;28;20329;-74
2023/06/30 02:41:46;;;;;;;9.65;5.70;;;;;;;13.34;99.11;94685.19;5113089;28;20560;-73
2023/06/30 02:44:13;;;;;;;9.43;6.47;;;;;;;13.32;99.15;94688.25;5112449;28;20241;-73
2023/06/30 02:46:41;;;;;;;8.70;5.65;;;;;;;13.20;99.71;94691.00;5098995;28;20213;-73
2023/06/30 02:49:08;;;;;;;11.50;6.32;;;;;;;13.29;99.40;94688.94;5113181;28;20248;-73
2023/06/30 02:51:35;;;;;;;8.73;5.97;;;;;;;13.31;99.08;94689.38;5112598;28;20209;-73
2023/06/30 02:54:02;;;;;;;8.15;6.68;;;;;;;13.28;99.23;94681.91;5112894;28;20209;-73
2023/06/30 02:56:29;;;;;;;9.70;6.68;;;;;;;13.36;99.22;94678.28;5112455;28;20656;-74
2023/06/30 02:58:56;;;;;;;13.18;7.53;;;;;;;13.41;98.64;94679.94;5112613;28;20583;-73
2023/06/30 03:01:23;;;;;;;9.63;6.35;;;;;;;13.45;98.61;94678.94;5092880;28;20342;-73
2023/06/30 03:03:52;;;;;;;10.65;5.95;;;;;;;13.50;98.67;94678.69;5091938;28;20584;-73
2023/06/30 03:06:19;;;;;;;11.52;7.00;;;;;;;13.93;98.95;94679.13;5091483;28;20216;-73
2023/06/30 03:08:46;;;;;;;10.23;6.68;;;;;;;14.49;97.49;94674.38;5105824;28;20204;-73
2023/06/30 03:11:14;;;;;;;9.32;6.20;;;;;;;15.16;93.50;94670.59;5111962;28;20580;-73
2023/06/30 03:13:41;;;;;;;8.52;6.15;;;;;;;15.96;88.97;94660.97;5112657;28;20214;-73
2023/06/30 03:16:08;;;;;;;7.90;6.00;;;;;;;16.61;85.27;94655.53;5111947;28;20701;-73
2023/06/30 03:18:35;;;;;;;9.35;5.38;;;;;;;17.02;83.04;94653.88;5125683;27;20617;-74
2023/06/30 03:21:03;;;;;;;8.27;5.78;;;;;;;17.66;81.56;94647.38;5090819;28;20747;-73
2023/06/30 03:23:30;;;;;;;7.15;5.45;;;;;;;18.30;77.48;94645.41;5091035;28;20680;-74
2023/06/30 03:25:57;;;;;;;5.70;4.90;;;;;;;19.21;72.94;94637.56;5091443;28;20294;-74
2023/06/30 03:28:23;;;;;;;7.07;6.38;;;;;;;19.66;72.33;94648.09;5091379;28;20213;-73
2023/06/30 03:30:50;;;;;;;7.93;5.25;;;;;;;19.76;71.43;94647.34;5091764;28;20222;-74
2023/06/30 03:33:17;;;;;;;7.15;5.95;;;;;;;20.44;69.54;94642.13;5106321;28;20193;-74
2023/06/30 03:35:46;;;;;;;13.65;8.10;;;;;;;20.90;67.68;94647.69;5111960;28;20592;-74
2023/06/30 03:38:14;;;;;;;11.52;7.72;;;;;;;21.68;64.19;94641.34;5111644;28;20206;-73
2023/06/30 03:40:41;;;;;;;9.82;7.22;;;;;;;21.63;64.09;94639.75;5112233;28;20209;-74
2023/06/30 03:43:08;;;;;;;11.15;8.77;;;;;;;21.80;62.20;94646.41;5111430;28;20290;-74
2023/06/30 03:45:35;;;;;;;11.60;8.25;;;;;;;22.09;61.39;94639.63;5111601;28;20198;-74
2023/06/30 03:48:02;;;;;;;10.15;7.15;;;;;;;22.55;59.82;94636.63;5111598;28;20660;-73
2023/06/30 03:50:28;;;;;;;11.40;6.63;;;;;;;23.50;57.58;94641.84;5111297;28;20606;-74
2023/06/30 03:52:55;;;;;;;10.70;6.97;;;;;;;23.90;55.45;94637.50;5111145;28;20218;-74
2023/06/30 03:55:23;;;;;;;10.25;6.22;;;;;;;24.01;54.74;94636.19;5111407;28;20656;-74
2023/06/30 03:57:50;;;;;;;12.30;6.50;;;;;;;24.58;53.13;94643.78;5111810;28;20255;-74
2023/06/30 04:00:18;;;;;;;7.68;6.25;;;;;;;24.50;53.01;94642.31;5101204;28;20568;-75
2023/06/30 04:02:44;;;;;;;7.72;6.30;;;;;;;23.42;55.41;94648.63;5091312;28;20206;-75
2023/06/30 04:05:11;;;;;;;8.50;6.47;;;;;;;23.56;56.15;94652.06;5091055;28;20683;-75
2023/06/30 04:07:38;;;;;;;9.48;6.68;;;;;;;24.63;53.30;94646.06;5090592;28;20891;-75
2023/06/30 04:10:05;;;;;;;7.60;5.80;;;;;;;23.18;56.45;94665.03;5090972;28;20294;-75
2023/06/30 04:12:34;;;;;;;14.57;6.13;;;;;;;22.49;59.07;94663.09;5092083;27;20202;-75
2023/06/30 04:15:01;;;;;;;9.52;5.93;;;;;;;23.37;56.43;94664.44;5101357;28;20644;-75
2023/06/30 04:17:28;;;;;;;9.20;5.82;;;;;;;24.24;54.20;94657.66;5107057;28;20212;-75
2023/06/30 04:19:54;;;;;;;8.55;5.88;;;;;;;25.10;52.16;94651.75;5110856;28;20209;-75
2023/06/30 04:22:22;;;;;;;7.32;5.97;;;;;;;25.57;51.30;94658.06;5109393;28;20210;-74
2023/06/30 04:24:49;;;;;;;7.35;5.90;;;;;;;25.82;49.13;94649.34;5104402;28;20554;-74
2023/06/30 04:27:15;;;;;;;8.40;5.82;;;;;;;26.02;49.40;94652.91;5114698;27;20201;-75
2023/06/30 04:29:44;;;;;;;8.07;5.65;;;;;;;25.49;49.59;94654.66;5126357;27;20212;-74
2023/06/30 04:32:10;;;;;;;6.50;5.80;;;;;;;26.44;48.02;94647.75;5111031;27;20202;-75
2023/06/30 04:34:37;;;;;;;6.50;5.60;;;;;;;27.00;46.35;94644.94;5098202;28;20198;-74
2023/06/30 04:37:04;;;;;;;6.22;5.60;;;;;;;27.50;44.99;94639.72;5108858;28;20258;-74
2023/06/30 04:39:31;;;;;;;7.32;5.70;;;;;;;27.66;45.20;94640.94;5110603;28;20675;-75
2023/06/30 04:41:59;;;;;;;7.43;5.47;;;;;;;28.37;42.59;94633.47;5110568;28;20258;-75
2023/06/30 04:44:25;;;;;;;8.98;5.90;;;;;;;29.12;40.78;94627.19;5110018;28;20214;-75
2023/06/30 04:46:54;;;;;;;9.45;6.03;;;;;;;29.68;39.88;94632.94;5102957;28;20550;-74
2023/06/30 04:49:21;;;;;;;10.30;5.97;;;;;;;29.92;39.95;94627.75;5103720;28;20202;-75
2023/06/30 04:51:48;;;;;;;6.50;5.13;;;;;;;29.35;40.37;94623.28;5110351;28;20217;-75
2023/06/30 04:54:15;;;;;;;8.23;6.13;;;;;;;30.38;38.53;94631.66;5110303;28;20679;-75
2023/06/30 04:56:41;;;;;;;7.03;5.68;;;;;;;30.19;39.16;94641.19;5110934;28;20259;-75
2023/06/30 04:59:09;;;;;;;11.05;6.10;;;;;;;30.31;38.84;94637.53;5120501;27;20193;-74
2023/06/30 05:01:36;;;;;;;9.85;6.00;;;;;;;30.09;39.01;94639.53;5110327;28;20219;-75
2023/06/30 05:04:04;;;;;;;7.32;5.45;;;;;;;31.47;37.33;94630.66;5109166;28;20719;-75
2023/06/30 05:06:31;;;;;;;8.60;5.57;;;;;;;30.56;38.30;94635.84;5110384;28;20209;-75
2023/06/30 05:08:57;;;;;;;6.20;5.60;;;;;;;29.14;40.11;94640.69;5110671;28;20208;-75
2023/06/30 05:11:24;;;;;;;8.48;5.90;;;;;;;29.66;40.18;94635.41;5110172;28;20559;-75
2023/06/30 05:13:51;;;;;;;6.18;5.20;;;;;;;30.68;38.11;94638.56;5110449;28;20241;-75
2023/06/30 05:16:17;;;;;;;6.72;5.72;;;;;;;29.63;39.48;94639.09;5110049;28;20201;-75
2023/06/30 05:18:44;;;;;;;5.30;4.80;;;;;;;28.27;41.25;94641.69;5110358;28;20206;-75
2023/06/30 05:21:12;;;;;;;9.63;5.03;;;;;;;30.06;38.72;94637.66;5110173;28;20660;-75
2023/06/30 05:23:39;;;;;;;6.03;4.82;;;;;;;30.40;38.32;94640.38;5109938;28;20236;-75
2023/06/30 05:26:06;;;;;;;6.50;5.85;;;;;;;30.64;37.68;94643.50;5110124;28;20201;-76
2023/06/30 05:28:35;;;;;;;7.05;5.20;;;;;;;30.98;37.84;94642.63;5110161;28;20214;-75
2023/06/30 05:31:01;;;;;;;6.43;5.60;;;;;;;30.98;37.01;94650.22;5110217;28;20232;-76
2023/06/30 05:33:28;;;;;;;8.05;6.10;;;;;;;31.45;36.60;94644.34;5120435;27;20213;-75
2023/06/30 05:35:55;;;;;;;8.80;6.25;;;;;;;30.70;37.75;94652.09;5089492;28;20217;-76
2023/06/30 05:38:23;;;;;;;9.75;6.13;;;;;;;30.38;39.52;94654.03;5089521;28;20240;-75
2023/06/30 05:40:50;;;;;;;6.97;6.03;;;;;;;30.54;38.01;94652.31;5089484;28;20202;-75
2023/06/30 05:43:17;;;;;;;10.73;5.28;;;;;;;31.59;36.96;94643.75;5089104;28;20291;-74
2023/06/30 05:45:44;;;;;;;7.97;6.35;;;;;;;32.92;34.03;94651.63;5101702;28;20296;-73
2023/06/30 05:48:11;;;;;;;10.27;6.63;;;;;;;32.29;34.88;94656.03;5119001;27;20265;-74
2023/06/30 05:50:38;;;;;;;8.98;6.28;;;;;;;31.89;35.39;94642.13;5088706;28;20210;-74
2023/06/30 05:53:04;;;;;;;8.93;6.47;;;;;;;30.13;37.58;94659.75;5088155;28;20609;-73
2023/06/30 05:55:32;;;;;;;7.15;5.93;;;;;;;29.27;40.34;94661.00;5088611;28;20260;-75
2023/06/30 05:57:59;;;;;;;8.75;6.05;;;;;;;29.93;40.00;94654.41;5089196;28;20233;-74
2023/06/30 06:00:27;;;;;;;10.02;6.32;;;;;;;29.90;39.41;94662.94;5104841;28;20266;-74
2023/06/30 06:02:54;;;;;;;9.10;5.90;;;;;;;28.98;40.97;94664.69;5113366;28;20265;-73
2023/06/30 06:05:21;;;;;;;6.97;5.93;;;;;;;28.89;40.96;94653.41;5106957;28;20229;-76
2023/06/30 06:07:49;;;;;;;10.63;7.05;;;;;;;27.79;42.71;94669.63;5093576;28;20222;-72
2023/06/30 06:10:16;;;;;;;8.43;6.13;;;;;;;28.93;40.85;94670.84;5109543;28;20213;-74
2023/06/30 06:12:44;;;;;;;7.78;6.43;;;;;;;29.09;40.16;94667.16;5118177;28;20202;-73
2023/06/30 06:15:11;;;;;;;10.35;6.55;;;;;;;29.65;39.64;94670.16;5091355;28;20221;-76
2023/06/30 06:17:38;;;;;;;8.45;6.70;;;;;;;30.47;38.30;94660.94;5092914;28;20545;-76
2023/06/30 06:20:05;;;;;;;8.48;6.38;;;;;;;29.60;39.27;94667.16;5106170;28;20212;-75
2023/06/30 06:22:33;;;;;;;11.23;6.60;;;;;;;28.20;42.34;94675.31;5113891;28;20601;-76
2023/06/30 06:25:00;;;;;;;9.68;6.35;;;;;;;29.46;40.43;94657.22;5113966;28;20229;-75
2023/06/30 06:27:28;;;;;;;8.63;7.00;;;;;;;29.55;39.91;94648.94;5121038;27;20205;-75
2023/06/30 06:29:56;;;;;;;9.23;6.80;;;;;;;30.43;38.72;94655.47;5096916;28;20232;-74
2023/06/30 06:32:23;;;;;;;10.68;6.40;;;;;;;31.22;37.69;94647.72;5110665;28;20717;-74
2023/06/30 06:34:50;;;;;;;11.52;6.97;;;;;;;30.25;38.33;94658.91;5127540;27;20197;-73
2023/06/30 06:37:17;;;;;;;12.10;6.72;;;;;;;31.40;36.91;94642.19;5113677;28;20258;-74
2023/06/30 06:39:44;;;;;;;8.48;6.60;;;;;;;30.21;38.64;94663.06;5113913;27;20198;-74
2023/06/30 06:42:10;;;;;;;8.27;6.40;;;;;;;30.69;36.95;94644.94;5124606;27;20198;-74
2023/06/30 06:44:37;;;;;;;7.25;5.68;;;;;;;31.98;35.25;94649.78;5110784;28;20209;-75
2023/06/30 06:47:41;;;;;;;9.48;6.80;;;;;;;33.04;33.53;94656.25;5112628;28;20201;-75
2023/06/30 06:50:09;;;;;;;9.98;6.22;;;;;;;32.65;34.18;94654.47;5112609;28;20200;-75
2023/06/30 06:52:36;;;;;;;7.20;6.50;;;;;;;32.06;35.18;94649.00;5110909;27;20247;-75
2023/06/30 06:55:04;;;;;;;8.23;6.53;;;;;;;30.59;37.82;94651.72;5108787;28;20251;-74
2023/06/30 06:57:30;;;;;;;7.38;6.22;;;;;;;32.21;35.09;94654.81;5113014;27;20534;-75
2023/06/30 06:59:59;;;;;;;10.35;6.35;;;;;;;31.45;36.25;94644.34;5103733;28;20193;-76
2023/06/30 07:02:25;;;;;;;8.85;6.20;;;;;;;29.53;38.48;94645.81;5112260;28;20306;-75
2023/06/30 07:04:52;;;;;;;8.77;6.10;;;;;;;31.05;36.49;94645.13;5111016;28;20760;-75
2023/06/30 07:07:23;;;;;;;9.10;5.65;;;;;;;32.18;34.80;94638.88;5110928;28;20283;-74
2023/06/30 07:09:49;;;;;;;6.53;5.80;;;;;;;30.15;38.47;94648.13;5109799;28;20189;-74
2023/06/30 07:12:16;;;;;;;6.47;5.88;;;;;;;29.93;37.87;94645.28;5109528;28;20202;-74
2023/06/30 07:14:43;;;;;;;10.07;6.72;;;;;;;30.32;37.38;94649.50;5107924;28;20517;-74
2023/06/30 07:17:10;;;;;;;8.32;6.10;;;;;;;31.27;35.91;94645.09;5113537;27;20203;-73
2023/06/30 07:19:36;;;;;;;7.47;6.28;;;;;;;31.45;35.25;94636.72;5112827;28;20605;-74
2023/06/30 07:22:03;;;;;;;9.00;5.80;;;;;;;31.29;34.93;94636.25;5126728;27;20205;-74
2023/06/30 07:24:31;;;;;;;6.63;4.95;;;;;;;31.49;34.92;94636.59;5112344;28;20244;-74
2023/06/30 07:26:58;;;;;;;6.38;5.00;;;;;;;32.62;32.94;94632.94;5123045;27;20208;-75
2023/06/30 07:29:25;;;;;;;7.47;5.40;;;;;;;32.90;32.85;94626.03;5091637;28;20269;-75
2023/06/30 07:31:52;;;;;;;8.35;5.00;;;;;;;31.90;34.10;94629.69;5108337;28;20258;-74
2023/06/30 07:34:19;;;;;;;7.63;4.30;;;;;;;31.26;34.73;94631.56;5112183;28;20201;-74
2023/06/30 07:36:46;;;;;;;6.25;5.00;;;;;;;31.28;35.96;94624.25;5114729;27;20746;-74
2023/06/30 07:39:12;;;;;;;6.95;4.82;;;;;;;31.74;35.58;94625.16;5113156;27;20208;-74
2023/06/30 07:41:41;;;;;;;6.57;4.88;;;;;;;32.30;34.54;94626.75;5108509;28;20202;-75
2023/06/30 07:44:09;;;;;;;6.20;4.97;;;;;;;30.24;36.83;94640.56;5111561;28;20241;-75
2023/06/30 07:46:35;;;;;;;7.53;5.05;;;;;;;28.74;39.35;94638.31;5114143;27;20220;-75
2023/06/30 07:49:02;;;;;;;6.53;4.60;;;;;;;29.24;39.74;94634.00;5121346;27;20208;-75
2023/06/30 07:51:30;;;;;;;4.40;4.00;;;;;;;28.32;39.36;94642.34;5110671;28;20209;-75
2023/06/30 07:53:57;;;;;;;5.13;4.53;;;;;;;29.21;38.25;94634.91;5123647;27;20223;-74
2023/06/30 07:56:23;;;;;;;6.55;4.85;;;;;;;29.40;38.24;94631.09;5094875;27;20202;-74
2023/06/30 07:58:52;;;;;;;6.78;4.47;;;;;;;29.60;38.61;94622.47;5092324;28;20630;-74
2023/06/30 08:01:18;;;;;;;6.47;4.60;;;;;;;30.44;38.75;94628.28;5111687;28;20197;-74
2023/06/30 08:03:46;;;;;;;5.75;4.53;;;;;;;29.43;37.95;94623.84;5111303;28;20664;-74
2023/06/30 08:06:12;;;;;;;8.80;5.03;;;;;;;29.30;38.08;94627.41;5111586;28;20240;-75
2023/06/30 08:08:39;;;;;;;5.88;4.68;;;;;;;29.05;38.58;94627.44;5111774;28;20213;-73
2023/06/30 08:11:06;;;;;;;7.28;3.92;;;;;;;28.88;37.99;94623.97;5111725;28;20213;-74
2023/06/30 08:13:33;;;;;;;6.72;4.57;;;;;;;26.94;40.96;94636.31;5111285;28;20209;-71
2023/06/30 08:16:01;;;;;;;6.28;4.65;;;;;;;25.88;42.89;94632.97;5111395;28;20213;-74
2023/06/30 08:18:28;;;;;;;4.22;3.42;;;;;;;26.58;43.14;94627.19;5111542;28;20206;-76
2023/06/30 08:20:56;;;;;;;4.85;4.35;;;;;;;27.73;39.93;94626.88;5111239;28;20236;-76
2023/06/30 08:23:23;;;;;;;6.10;3.50;;;;;;;27.28;41.28;94621.22;5111312;28;20202;-76
2023/06/30 08:25:49;;;;;;;5.25;2.50;;;;;;;26.46;38.91;94617.53;5118778;27;20221;-75
2023/06/30 08:28:16;;;;;;;2.92;2.60;;;;;;;26.73;39.41;94612.56;5105768;27;20216;-75
2023/06/30 08:30:43;;;;;;;3.42;2.60;;;;;;;25.95;39.68;94611.44;5110807;28;20712;-73
2023/06/30 08:33:11;;;;;;;4.75;2.83;;;;;;;26.18;38.67;94608.56;5124315;27;20258;-74
2023/06/30 08:35:38;;;;;;;6.43;3.20;;;;;;;27.22;38.94;94604.25;5090173;28;20595;-75
2023/06/30 08:38:05;;;;;;;7.10;4.03;;;;;;;27.13;40.14;94592.97;5090312;28;20611;-74
2023/06/30 08:40:32;;;;;;;5.60;4.07;;;;;;;27.12;41.58;94596.97;5090692;28;20275;-74
2023/06/30 08:43:00;;;;;;;6.95;4.15;;;;;;;28.08;39.74;94584.09;5105624;28;20234;-75
2023/06/30 08:45:27;;;;;;;3.90;3.50;;;;;;;27.90;40.72;94581.03;5110220;28;20792;-74
2023/06/30 08:47:56;;;;;;;6.60;3.20;;;;;;;28.44;40.27;94580.28;5110617;28;20201;-75
2023/06/30 08:50:25;;;;;;;5.53;4.00;;;;;;;28.56;38.85;94573.97;5111068;28;20290;-74
2023/06/30 08:52:52;;;;;;;4.45;4.05;;;;;;;28.31;39.65;94574.69;5113587;27;20202;-74
2023/06/30 08:55:19;;;;;;;5.28;4.32;;;;;;;27.10;42.85;94582.72;5111436;27;20206;-75
2023/06/30 08:57:46;;;;;;;5.28;4.18;;;;;;;27.44;41.05;94579.47;5093213;28;20696;-74
2023/06/30 09:00:14;;;;;;;4.20;3.80;;;;;;;27.82;40.75;94571.31;5100800;28;20205;-75
2023/06/30 09:02:43;;;;;;;5.22;4.15;;;;;;;28.03;39.82;94559.56;5089687;28;20296;-74
2023/06/30 09:05:11;;;;;;;4.53;4.03;;;;;;;27.26;41.07;94571.56;5089862;28;20271;-74
2023/06/30 09:07:43;;;;;;;6.20;3.85;;;;;;;27.05;40.28;94569.34;5094404;28;20282;-74
2023/06/30 09:10:10;;;;;;;4.78;3.47;;;;;;;27.19;41.62;94574.56;5110770;28;20202;-73
2023/06/30 09:12:39;;;;;;;7.93;3.70;;;;;;;26.77;42.71;94577.13;5118667;27;20699;-71
2023/06/30 09:15:10;;;;;;;7.25;3.80;;;;;;;26.14;43.32;94568.97;5090243;28;20202;-76
2023/06/30 09:17:37;;;;;;;4.85;3.50;;;;;;;26.94;41.34;94571.59;5089963;28;20267;-74
2023/06/30 09:20:04;;;;;;;4.40;4.00;;;;;;;25.96;42.64;94579.69;5089973;28;20213;-73
2023/06/30 09:22:31;;;;;;;6.18;4.28;;;;;;;26.26;41.71;94569.50;5089463;28;20793;-75
2023/06/30 09:24:59;;;;;;;5.85;4.22;;;;;;;26.81;41.13;94572.25;5089873;28;20307;-74
2023/06/30 09:27:27;;;;;;;6.82;3.92;;;;;;;26.83;41.23;94575.38;5089791;28;20248;-74
2023/06/30 09:29:55;;;;;;;4.80;3.70;;;;;;;26.77;42.75;94565.22;5089865;28;20707;-74
2023/06/30 09:32:29;;;;;;;5.97;3.60;;;;;;;27.31;42.36;94568.28;5089613;28;20601;-75
2023/06/30 09:34:56;;;;;;;6.38;3.97;;;;;;;27.70;41.51;94560.91;5089672;28;20661;-75
2023/06/30 09:37:23;;;;;;;7.20;4.00;;;;;;;26.24;42.40;94569.19;5089534;28;20206;-74
2023/06/30 09:39:51;;;;;;;5.32;4.10;;;;;;;25.98;42.49;94563.34;5089444;28;20311;-75
2023/06/30 09:42:21;;;;;;;5.28;3.88;;;;;;;26.46;42.60;94556.41;5089561;28;20360;-74
2023/06/30 09:44:49;;;;;;;6.90;3.80;;;;;;;26.61;42.83;94552.09;5094030;28;20267;-75
2023/06/30 09:47:18;;;;;;;4.30;3.88;;;;;;;26.94;42.96;94552.13;5109283;28;20240;-74
2023/06/30 09:49:46;;;;;;;4.53;3.92;;;;;;;26.81;43.59;94552.00;5108892;28;20641;-74
2023/06/30 09:52:24;;;;;;;6.03;4.35;;;;;;;27.11;41.72;94548.13;5109775;28;20274;-74
2023/06/30 09:54:51;;;;;;;6.53;4.47;;;;;;;26.54;42.72;94552.25;5109985;28;20291;-75
2023/06/30 09:57:19;;;;;;;6.50;4.50;;;;;;;27.39;41.70;94550.16;5109878;28;20295;-73
2023/06/30 09:59:46;;;;;;;4.70;4.30;;;;;;;27.45;42.00;94542.88;5103187;28;20206;-73
2023/06/30 10:02:15;;;;;;;5.05;4.55;;;;;;;27.69;40.60;94545.44;5088537;28;20293;-73
2023/06/30 10:04:43;;;;;;;4.90;4.30;;;;;;;27.80;40.32;94537.56;5089350;28;20227;-75
2023/06/30 10:07:12;;;;;;;6.45;4.85;;;;;;;27.13;40.76;94542.91;5102242;28;20664;-75
2023/06/30 10:09:41;;;;;;;7.32;4.90;;;;;;;27.21;41.96;94530.38;5095742;28;20656;-73
2023/06/30 10:12:10;;;;;;;4.38;4.05;;;;;;;26.99;43.25;94527.38;5109168;28;20279;-74
2023/06/30 10:14:39;;;;;;;4.78;4.15;;;;;;;26.39;44.47;94523.22;5109812;28;20259;-75
2023/06/30 10:17:08;;;;;;;4.63;4.18;;;;;;;27.35;44.10;94527.22;5110711;28;20216;-75
2023/06/30 10:19:38;;;;;;;6.88;4.45;;;;;;;27.46;42.11;94522.16;5121077;28;20593;-75
2023/06/30 10:22:06;;;;;;;5.38;4.30;;;;;;;27.43;42.78;94511.91;5109078;28;20209;-75
2023/06/30 10:24:37;;;;;;;5.28;4.38;;;;;;;26.89;42.18;94512.50;5118761;28;20261;-72
2023/06/30 10:27:07;;;;;;;5.35;4.78;;;;;;;26.63;41.90;94505.19;5094772;28;20206;-73
2023/06/30 10:29:35;;;;;;;7.15;4.60;;;;;;;26.90;43.73;94502.94;5089076;28;20240;-73
2023/06/30 10:32:03;;;;;;;5.05;4.10;;;;;;;27.05;42.65;94506.16;5088999;28;20212;-73
2023/06/30 10:34:31;;;;;;;5.03;4.53;;;;;;;26.48;42.28;94503.97;5089230;28;20264;-71
2023/06/30 10:36:59;;;;;;;5.90;4.53;;;;;;;26.46;42.10;94495.28;5093425;28;20221;-72
2023/06/30 10:39:26;;;;;;;6.10;4.68;;;;;;;26.52;43.83;94499.09;5109638;28;20210;-72
2023/06/30 10:41:57;;;;;;;5.35;4.28;;;;;;;26.76;41.95;94491.38;5109041;28;20206;-73
2023/06/30 10:44:37;;;;;;;8.15;4.57;;;;;;;26.86;40.90;94491.13;5109521;28;20198;-73
2023/06/30 10:47:05;;;;;;;5.07;4.05;;;;;;;27.18;41.31;94483.97;5097079;28;20296;-73
2023/06/30 10:49:35;;;;;;;4.60;3.85;;;;;;;27.06;41.51;94479.88;5109292;28;20306;-73
2023/06/30 10:52:03;;;;;;;8.25;4.60;;;;;;;26.97;40.57;94479.75;5109217;28;20577;-73
2023/06/30 10:54:31;;;;;;;6.80;4.78;;;;;;;27.35;40.28;94466.00;5109349;28;20279;-72
2023/06/30 10:57:09;;;;;;;4.85;3.88;;;;;;;27.32;43.28;94474.47;5118390;28;20197;-74
2023/06/30 10:59:38;;;;;;;7.13;4.28;;;;;;;27.83;40.13;94455.94;5103031;28;20584;-74
2023/06/30 11:02:23;;;;;;;6.60;4.45;;;;;;;27.21;40.33;94456.03;5111870;28;20206;-76
2023/06/30 11:04:52;;;;;;;6.38;4.78;;;;;;;26.72;41.14;94468.44;5112886;28;20221;-73
2023/06/30 11:07:20;;;;;;;4.70;4.18;;;;;;;27.07;43.59;94464.00;5112057;28;20614;-72
2023/06/30 11:09:57;;;;;;;5.85;4.68;;;;;;;26.71;41.22;94462.09;5112256;28;20250;-72
2023/06/30 11:12:25;;;;;;;5.78;4.22;;;;;;;26.88;41.92;94465.66;5112196;28;20281;-73
2023/06/30 11:14:54;;;;;;;5.80;4.82;;;;;;;26.36;42.84;94463.78;5122353;27;20193;-74
2023/06/30 11:17:23;;;;;;;4.75;4.30;;;;;;;26.31;42.98;94464.28;5099966;27;20610;-72
2023/06/30 11:19:59;;;;;;;5.88;5.05;;;;;;;26.80;41.51;94459.47;5091787;28;20246;-73
2023/06/30 11:22:29;;;;;;;5.13;4.63;;;;;;;26.85;41.54;94456.19;5096268;28;20205;-73
2023/06/30 11:24:57;;;;;;;5.40;4.40;;;;;;;27.01;41.00;94451.84;5112573;28;20205;-73
2023/06/30 11:27:24;;;;;;;4.78;4.22;;;;;;;26.51;43.91;94447.53;5112212;28;20197;-74
2023/06/30 11:29:51;;;;;;;6.68;4.22;;;;;;;26.72;42.62;94451.78;5112480;28;20221;-73
2023/06/30 11:32:19;;;;;;;4.72;3.90;;;;;;;27.10;41.73;94435.31;5112194;28;20251;-73
2023/06/30 11:34:47;;;;;;;5.82;4.50;;;;;;;27.82;40.68;94426.53;5111974;28;20205;-73